Time;durP1;ratioP1;P1;durP2;ratioP2;P2;SDS_P1;SDS_P2;PMS_P1;PMS_P2;Temp;Humidity;BMP_temperature;BMP_pressure;BME280_temperature;BME280_humidity;BME280_pressure;Samples;Min_cycle;Max_cycle;Signal;HPM_P1;HPM_P2
2023/03/05 00:02:22;;;;;;;;;;;;;;;1.24;65.49;96720.48;108957;1250;100044;-75
2023/03/05 00:04:50;;;;;;;;;;;;;;;1.15;65.70;96719.34;108956;1250;96945;-75
2023/03/05 00:07:18;;;;;;;;;;;;;;;1.12;65.98;96722.16;109048;1251;96902;-72
2023/03/05 00:09:46;;;;;;;;;;;;;;;1.13;66.00;96719.95;109085;1251;105122;-75
2023/03/05 00:12:15;;;;;;;;;;;;;;;1.14;66.01;96719.02;109045;1251;100093;-73
2023/03/05 00:14:44;;;;;;;;;;;;;;;1.13;66.03;96716.23;108707;1250;99038;-76
2023/03/05 00:17:12;;;;;;;;;;;;;;;1.09;65.86;96716.60;108595;1254;97463;-74
2023/03/05 00:19:40;;;;;;;;;;;;;;;1.11;65.99;96720.38;108895;1251;96955;-75
2023/03/05 00:22:08;;;;;;;;;;;;;;;1.17;65.98;96717.63;108858;1251;113466;-73
2023/03/05 00:24:36;;;;;;;;;;;;;;;1.22;65.93;96713.67;108938;1250;101872;-72
2023/03/05 00:27:04;;;;;;;;;;;;;;;1.26;65.80;96713.39;108832;1251;99644;-75
2023/03/05 00:29:32;;;;;;;;;;;;;;;1.30;65.81;96715.77;108877;1254;96933;-73
2023/03/05 00:32:00;;;;;;;;;;;;;;;1.32;65.65;96712.38;108881;1251;96991;-72
2023/03/05 00:34:28;;;;;;;;;;;;;;;1.34;65.72;96708.05;108889;1251;103924;-72
2023/03/05 00:36:59;;;;;;;;;;;;;;;1.30;65.74;96706.81;108890;1251;101338;-72
2023/03/05 00:39:27;;;;;;;;;;;;;;;1.26;65.89;96702.93;108882;1251;98899;-73
2023/03/05 00:41:55;;;;;;;;;;;;;;;1.28;65.92;96699.84;108840;1251;96965;-72
2023/03/05 00:44:24;;;;;;;;;;;;;;;1.31;65.88;96696.72;108915;1251;97780;-72
2023/03/05 00:46:52;;;;;;;;;;;;;;;1.33;65.94;96688.23;108908;1251;105219;-73
2023/03/05 00:49:20;;;;;;;;;;;;;;;1.36;65.99;96688.31;108902;1251;101306;-73
2023/03/05 00:51:48;;;;;;;;;;;;;;;1.37;66.01;96689.38;108885;1251;99605;-73
2023/03/05 00:54:16;;;;;;;;;;;;;;;1.38;66.11;96685.24;108838;1255;97277;-73
2023/03/05 00:56:44;;;;;;;;;;;;;;;1.38;66.12;96683.78;108857;1251;97080;-73
2023/03/05 00:59:12;;;;;;;;;;;;;;;1.39;66.07;96684.24;108920;1251;105855;-73
2023/03/05 01:01:40;;;;;;;;;;;;;;;1.38;66.21;96682.72;108891;1250;102101;-73
2023/03/05 01:04:08;;;;;;;;;;;;;;;1.37;66.39;96681.27;108848;1251;99905;-73
2023/03/05 01:06:41;;;;;;;;;;;;;;;1.37;66.45;96681.39;108831;1251;97132;-72
2023/03/05 01:09:09;;;;;;;;;;;;;;;1.37;66.49;96686.88;108849;1251;96953;-75
2023/03/05 01:11:37;;;;;;;;;;;;;;;1.38;66.83;96684.55;108866;1251;112325;-73
2023/03/05 01:14:05;;;;;;;;;;;;;;;1.37;66.85;96681.66;108860;1251;101456;-75
2023/03/05 01:16:33;;;;;;;;;;;;;;;1.33;66.87;96680.44;108501;1253;100029;-72
2023/03/05 01:19:04;;;;;;;;;;;;;;;1.32;66.96;96680.63;108839;1251;96998;-73
2023/03/05 01:21:32;;;;;;;;;;;;;;;1.29;67.23;96683.83;108952;1251;96916;-74
2023/03/05 01:24:00;;;;;;;;;;;;;;;1.22;67.53;96683.30;108884;1251;105227;-72
2023/03/05 01:26:28;;;;;;;;;;;;;;;1.15;67.64;96685.35;108905;1251;101063;-73
2023/03/05 01:28:56;;;;;;;;;;;;;;;1.12;67.61;96682.70;108841;1251;99874;-75
2023/03/05 01:31:24;;;;;;;;;;;;;;;1.11;67.80;96679.41;108862;1251;97133;-72
2023/03/05 01:33:53;;;;;;;;;;;;;;;1.09;67.76;96680.89;108888;1250;96968;-75
2023/03/05 01:36:23;;;;;;;;;;;;;;;1.07;67.95;96676.45;108926;1251;104486;-73
2023/03/05 01:38:51;;;;;;;;;;;;;;;1.03;68.12;96679.07;108886;1251;101161;-74
2023/03/05 01:41:20;;;;;;;;;;;;;;;0.98;68.24;96678.50;108843;1251;99994;-75
2023/03/05 01:43:48;;;;;;;;;;;;;;;0.99;68.37;96682.83;108821;1255;96927;-73
2023/03/05 01:46:16;;;;;;;;;;;;;;;0.99;68.38;96683.19;108778;1251;96998;-73
2023/03/05 01:48:47;;;;;;;;;;;;;;;0.96;68.58;96680.55;108897;1252;105035;-74
2023/03/05 01:51:16;;;;;;;;;;;;;;;0.91;68.45;96682.12;108841;1251;101382;-73
2023/03/05 01:53:44;;;;;;;;;;;;;;;0.88;68.69;96683.17;108885;1251;100142;-75
2023/03/05 01:56:12;;;;;;;;;;;;;;;0.88;68.74;96678.92;108869;1254;96863;-73
2023/03/05 01:58:40;;;;;;;;;;;;;;;0.89;68.81;96680.80;108886;1251;97016;-72
2023/03/05 02:01:08;;;;;;;;;;;;;;;0.92;68.94;96681.88;108873;1251;104797;-75
2023/03/05 02:03:37;;;;;;;;;;;;;;;0.92;69.01;96682.75;108894;1251;101441;-73
2023/03/05 02:06:05;;;;;;;;;;;;;;;0.90;69.07;96680.26;108644;1254;99417;-73
2023/03/05 02:08:33;;;;;;;;;;;;;;;0.91;69.21;96677.90;108837;1255;97126;-73
2023/03/05 02:11:01;;;;;;;;;;;;;;;0.89;69.20;96676.54;108863;1251;97232;-73
2023/03/05 02:13:34;;;;;;;;;;;;;;;0.86;69.21;96671.48;108841;1255;105001;-72
2023/03/05 02:16:02;;;;;;;;;;;;;;;0.84;69.31;96669.94;108905;1251;100989;-73
2023/03/05 02:18:30;;;;;;;;;;;;;;;0.81;69.47;96667.39;108986;1250;99984;-73
2023/03/05 02:21:01;;;;;;;;;;;;;;;0.80;69.34;96667.80;108979;1251;96886;-73
2023/03/05 02:23:31;;;;;;;;;;;;;;;0.81;69.37;96668.90;109030;1251;97482;-73
2023/03/05 02:25:59;;;;;;;;;;;;;;;0.82;69.40;96668.66;109021;1251;104778;-73
2023/03/05 02:28:30;;;;;;;;;;;;;;;0.83;69.32;96665.04;109011;1250;109944;-73
2023/03/05 02:30:58;;;;;;;;;;;;;;;0.82;69.50;96661.59;108883;1251;100090;-75
2023/03/05 02:33:26;;;;;;;;;;;;;;;0.81;69.61;96659.92;108945;1250;96820;-73
2023/03/05 02:35:54;;;;;;;;;;;;;;;0.81;69.54;96659.33;109007;1251;96919;-72
2023/03/05 02:38:22;;;;;;;;;;;;;;;0.85;69.63;96659.30;109029;1251;104965;-74
2023/03/05 02:40:50;;;;;;;;;;;;;;;0.85;69.63;96656.77;109068;1251;101473;-74
2023/03/05 02:43:18;;;;;;;;;;;;;;;0.84;69.75;96659.02;109042;1250;100022;-73
2023/03/05 02:45:46;;;;;;;;;;;;;;;0.84;69.65;96661.80;108981;1250;96887;-72
2023/03/05 02:48:17;;;;;;;;;;;;;;;0.85;69.90;96659.27;109050;1249;97305;-72
2023/03/05 02:50:46;;;;;;;;;;;;;;;0.84;70.04;96660.69;109079;1249;105182;-73
2023/03/05 02:53:14;;;;;;;;;;;;;;;0.83;70.08;96660.59;108912;1251;101177;-75
2023/03/05 02:55:42;;;;;;;;;;;;;;;0.83;70.27;96657.73;108609;1251;110241;-72
2023/03/05 02:58:10;;;;;;;;;;;;;;;0.81;70.30;96656.92;108700;1258;97389;-74
2023/03/05 03:00:38;;;;;;;;;;;;;;;0.80;70.44;96656.10;109061;1253;97019;-73
2023/03/05 03:03:06;;;;;;;;;;;;;;;0.80;70.36;96656.80;109026;1251;105097;-73
2023/03/05 03:05:35;;;;;;;;;;;;;;;0.80;70.33;96657.86;109042;1251;100616;-73
2023/03/05 03:08:03;;;;;;;;;;;;;;;0.79;70.36;96659.42;109024;1251;99607;-73
2023/03/05 03:10:31;;;;;;;;;;;;;;;0.78;70.42;96655.45;108992;1250;96901;-73
2023/03/05 03:12:59;;;;;;;;;;;;;;;0.78;70.41;96658.27;109063;1249;97222;-73
2023/03/05 03:15:27;;;;;;;;;;;;;;;0.77;70.47;96657.19;108663;1251;104900;-72
2023/03/05 03:17:56;;;;;;;;;;;;;;;0.73;70.73;96655.27;108651;1251;101206;-72
2023/03/05 03:20:24;;;;;;;;;;;;;;;0.71;70.77;96654.56;108861;1251;100130;-75
2023/03/05 03:22:52;;;;;;;;;;;;;;;0.70;70.76;96654.60;108840;1251;97300;-72
2023/03/05 03:25:21;;;;;;;;;;;;;;;0.70;70.67;96650.81;108873;1251;96943;-72
2023/03/05 03:27:49;;;;;;;;;;;;;;;0.70;70.68;96648.55;108893;1251;104899;-74
2023/03/05 03:30:17;;;;;;;;;;;;;;;0.69;70.88;96646.00;108747;1251;100388;-75
2023/03/05 03:32:50;;;;;;;;;;;;;;;0.67;71.00;96642.52;108873;1251;99753;-73
2023/03/05 03:35:18;;;;;;;;;;;;;;;0.64;70.97;96638.69;108848;1251;96859;-76
2023/03/05 03:37:47;;;;;;;;;;;;;;;0.65;70.87;96641.31;108919;1251;96933;-73
2023/03/05 03:40:15;;;;;;;;;;;;;;;0.69;70.96;96636.96;108893;1256;113239;-72
2023/03/05 03:42:43;;;;;;;;;;;;;;;0.72;70.91;96636.83;108894;1251;101312;-72
2023/03/05 03:45:11;;;;;;;;;;;;;;;0.74;70.80;96638.34;108859;1251;99797;-73
2023/03/05 03:47:39;;;;;;;;;;;;;;;0.77;70.69;96639.14;108678;1253;96974;-75
2023/03/05 03:50:07;;;;;;;;;;;;;;;0.78;70.64;96635.24;108641;1251;97081;-72
2023/03/05 03:52:35;;;;;;;;;;;;;;;0.79;70.80;96631.59;108900;1251;104865;-75
2023/03/05 03:55:03;;;;;;;;;;;;;;;0.74;70.82;96619.78;108947;1251;101734;-72
2023/03/05 03:57:32;;;;;;;;;;;;;;;0.71;70.90;96625.02;108863;1251;108514;-75
2023/03/05 04:00:00;;;;;;;;;;;;;;;0.68;70.93;96615.61;108894;1251;97229;-73
2023/03/05 04:02:28;;;;;;;;;;;;;;;0.64;70.93;96615.52;108905;1251;97671;-72
2023/03/05 04:04:57;;;;;;;;;;;;;;;0.64;70.90;96610.60;108646;1254;104686;-74
2023/03/05 04:07:25;;;;;;;;;;;;;;;0.65;70.91;96611.36;108728;1251;100625;-72
2023/03/05 04:09:53;;;;;;;;;;;;;;;0.65;70.91;96610.64;108859;1251;99811;-73
2023/03/05 04:12:21;;;;;;;;;;;;;;;0.65;70.93;96607.52;108928;1251;96845;-75
2023/03/05 04:14:49;;;;;;;;;;;;;;;0.65;70.97;96594.56;108916;1251;97831;-75
2023/03/05 04:17:17;;;;;;;;;;;;;;;0.65;71.09;96591.52;108963;1251;113026;-73
2023/03/05 04:19:45;;;;;;;;;;;;;;;0.65;71.14;96588.36;109048;1251;101000;-74
2023/03/05 04:22:15;;;;;;;;;;;;;;;0.64;71.09;96590.34;109039;1249;100028;-73
2023/03/05 04:24:43;;;;;;;;;;;;;;;0.66;71.02;96586.86;108971;1251;96874;-75
2023/03/05 04:27:11;;;;;;;;;;;;;;;0.65;71.25;96584.08;109085;1249;96942;-73
2023/03/05 04:29:40;;;;;;;;;;;;;;;0.64;71.23;96580.62;109074;1251;104719;-75
2023/03/05 04:32:08;;;;;;;;;;;;;;;0.65;71.22;96584.94;109051;1251;101343;-74
2023/03/05 04:34:37;;;;;;;;;;;;;;;0.68;71.32;96582.75;109019;1250;99483;-72
2023/03/05 04:37:05;;;;;;;;;;;;;;;0.64;71.33;96577.96;109019;1250;96916;-73
2023/03/05 04:39:33;;;;;;;;;;;;;;;0.62;71.45;96578.96;109016;1251;96952;-73
2023/03/05 04:42:01;;;;;;;;;;;;;;;0.60;71.54;96578.25;109051;1250;104498;-73
2023/03/05 04:44:29;;;;;;;;;;;;;;;0.60;71.73;96578.78;109039;1250;101131;-73
2023/03/05 04:46:57;;;;;;;;;;;;;;;0.60;71.79;96574.27;109037;1250;99910;-75
2023/03/05 04:49:25;;;;;;;;;;;;;;;0.60;71.92;96579.35;109039;1249;96860;-73
2023/03/05 04:51:53;;;;;;;;;;;;;;;0.59;71.92;96576.63;109063;1250;97042;-72
2023/03/05 04:54:21;;;;;;;;;;;;;;;0.59;71.86;96578.30;109022;1250;104858;-73
2023/03/05 04:56:49;;;;;;;;;;;;;;;0.61;71.92;96582.41;109024;1250;101288;-75
2023/03/05 04:59:17;;;;;;;;;;;;;;;0.60;72.04;96579.71;109014;1250;99861;-74
2023/03/05 05:01:45;;;;;;;;;;;;;;;0.57;72.01;96578.46;109030;1250;96934;-76
2023/03/05 05:04:13;;;;;;;;;;;;;;;0.57;72.10;96578.48;109042;1250;96961;-73
2023/03/05 05:06:41;;;;;;;;;;;;;;;0.58;72.09;96578.86;108760;1249;105440;-75
2023/03/05 05:09:09;;;;;;;;;;;;;;;0.61;72.15;96575.48;109048;1249;101596;-73
2023/03/05 05:11:37;;;;;;;;;;;;;;;0.60;72.30;96571.73;109009;1249;100255;-73
2023/03/05 05:14:05;;;;;;;;;;;;;;;0.58;72.37;96570.23;108989;1250;96944;-73
2023/03/05 05:16:33;;;;;;;;;;;;;;;0.56;72.22;96569.73;109046;1249;97563;-73
2023/03/05 05:19:01;;;;;;;;;;;;;;;0.52;72.37;96570.89;109037;1251;104467;-73
2023/03/05 05:21:29;;;;;;;;;;;;;;;0.51;72.35;96568.86;109033;1251;101153;-72
2023/03/05 05:23:57;;;;;;;;;;;;;;;0.49;72.28;96571.60;109001;1251;99970;-75
2023/03/05 05:26:25;;;;;;;;;;;;;;;0.45;72.27;96573.03;109037;1250;96878;-73
2023/03/05 05:28:53;;;;;;;;;;;;;;;0.44;72.31;96570.75;109077;1250;96942;-73
2023/03/05 05:31:21;;;;;;;;;;;;;;;0.44;72.37;96570.21;109049;1250;105468;-73
2023/03/05 05:33:49;;;;;;;;;;;;;;;0.45;72.38;96571.31;109037;1250;101285;-75
2023/03/05 05:36:20;;;;;;;;;;;;;;;0.46;72.27;96576.30;109004;1251;100187;-73
2023/03/05 05:38:48;;;;;;;;;;;;;;;0.49;72.17;96580.18;108983;1251;96905;-73
2023/03/05 05:41:17;;;;;;;;;;;;;;;0.53;72.28;96582.94;108980;1250;97232;-72
2023/03/05 05:43:46;;;;;;;;;;;;;;;0.57;72.10;96583.97;109050;1250;103695;-73
2023/03/05 05:46:16;;;;;;;;;;;;;;;0.58;71.97;96583.27;108767;1251;100922;-72
2023/03/05 05:48:44;;;;;;;;;;;;;;;0.56;72.07;96584.60;108806;1250;99885;-72
2023/03/05 05:51:14;;;;;;;;;;;;;;;0.54;72.15;96590.64;109023;1250;96838;-74
2023/03/05 05:53:43;;;;;;;;;;;;;;;0.55;72.18;96591.40;109061;1250;96927;-74
2023/03/05 05:56:12;;;;;;;;;;;;;;;0.58;72.05;96589.17;108690;1251;103877;-72
2023/03/05 05:58:43;;;;;;;;;;;;;;;0.58;72.01;96588.05;108985;1251;101329;-72
2023/03/05 06:01:16;;;;;;;;;;;;;;;0.58;72.00;96593.54;109010;1250;100286;-72
2023/03/05 06:03:44;;;;;;;;;;;;;;;0.60;72.08;96592.33;109014;1250;96837;-72
2023/03/05 06:06:14;;;;;;;;;;;;;;;0.59;72.15;96591.36;109064;1249;97012;-75
2023/03/05 06:08:42;;;;;;;;;;;;;;;0.56;72.26;96590.98;109041;1250;105069;-72
2023/03/05 06:11:10;;;;;;;;;;;;;;;0.55;72.27;96589.81;109051;1250;101320;-75
2023/03/05 06:13:38;;;;;;;;;;;;;;;0.55;72.18;96591.64;108984;1250;100021;-73
2023/03/05 06:16:13;;;;;;;;;;;;;;;0.55;72.17;96587.92;109001;1250;97194;-76
2023/03/05 06:18:41;;;;;;;;;;;;;;;0.54;72.25;96582.84;109037;1250;96928;-72
2023/03/05 06:21:11;;;;;;;;;;;;;;;0.52;72.31;96580.17;109016;1250;104947;-72
2023/03/05 06:23:39;;;;;;;;;;;;;;;0.51;72.23;96577.36;109079;1249;100394;-72
2023/03/05 06:26:08;;;;;;;;;;;;;;;0.52;72.22;96571.95;108983;1250;99489;-72
2023/03/05 06:28:36;;;;;;;;;;;;;;;0.53;72.31;96572.31;108682;1251;97046;-72
2023/03/05 06:31:24;;;;;;;;;;;;;;;0.52;72.28;96569.05;109036;1249;96965;-71
2023/03/05 06:33:53;;;;;;;;;;;;;;;0.52;72.31;96565.94;108913;1251;104798;-72
2023/03/05 06:36:23;;;;;;;;;;;;;;;0.52;72.28;96569.23;108736;1250;100532;-73
2023/03/05 06:38:51;;;;;;;;;;;;;;;0.54;72.30;96570.62;108994;1249;100147;-75
2023/03/05 06:41:21;;;;;;;;;;;;;;;0.54;72.28;96566.90;108988;1250;96946;-72
2023/03/05 06:43:49;;;;;;;;;;;;;;;0.54;72.29;96569.85;109045;1249;97832;-75
2023/03/05 06:46:19;;;;;;;;;;;;;;;0.56;72.19;96570.23;108697;1256;104689;-73
2023/03/05 06:48:47;;;;;;;;;;;;;;;0.57;72.25;96569.59;109042;1250;101520;-72
2023/03/05 06:51:20;;;;;;;;;;;;;;;0.60;72.19;96566.56;109047;1249;99845;-73
2023/03/05 06:53:48;;;;;;;;;;;;;;;0.63;72.14;96563.92;109004;1250;96950;-72
2023/03/05 06:56:17;;;;;;;;;;;;;;;0.65;72.27;96560.30;109053;1249;96950;-72
2023/03/05 06:58:46;;;;;;;;;;;;;;;0.68;72.32;96564.29;109015;1249;104839;-75
2023/03/05 07:01:14;;;;;;;;;;;;;;;0.70;72.17;96562.33;109071;1250;101096;-73
2023/03/05 07:03:42;;;;;;;;;;;;;;;0.71;72.17;96562.92;108649;1251;100862;-72
2023/03/05 07:06:12;;;;;;;;;;;;;;;0.71;72.11;96563.28;108966;1249;96948;-73
2023/03/05 07:08:40;;;;;;;;;;;;;;;0.73;72.31;96565.86;109027;1249;96984;-72
2023/03/05 07:11:16;;;;;;;;;;;;;;;0.77;72.26;96564.92;109015;1250;104384;-72
2023/03/05 07:13:46;;;;;;;;;;;;;;;0.79;72.15;96568.49;109006;1250;101235;-73
2023/03/05 07:16:16;;;;;;;;;;;;;;;0.82;72.23;96566.30;109015;1250;98935;-72
2023/03/05 07:18:44;;;;;;;;;;;;;;;0.84;72.35;96564.77;108997;1250;96889;-71
2023/03/05 07:21:15;;;;;;;;;;;;;;;0.87;72.31;96564.27;109065;1250;97293;-72
2023/03/05 07:23:43;;;;;;;;;;;;;;;0.89;72.06;96568.06;109069;1249;104942;-72
2023/03/05 07:26:12;;;;;;;;;;;;;;;0.92;71.89;96568.10;109014;1249;101948;-72
2023/03/05 07:28:40;;;;;;;;;;;;;;;0.95;71.96;96569.79;109009;1250;100052;-72
2023/03/05 07:31:11;;;;;;;;;;;;;;;0.98;72.03;96570.63;109038;1250;96872;-74
2023/03/05 07:33:39;;;;;;;;;;;;;;;0.99;72.04;96570.71;108747;1249;97424;-72
2023/03/05 07:36:10;;;;;;;;;;;;;;;0.98;71.92;96570.65;109012;1249;105100;-72
2023/03/05 07:38:38;;;;;;;;;;;;;;;0.99;71.78;96570.67;108846;1249;101954;-72
2023/03/05 07:41:08;;;;;;;;;;;;;;;1.01;71.64;96572.10;108694;1251;99828;-72
2023/03/05 07:43:36;;;;;;;;;;;;;;;1.04;71.62;96570.51;108975;1250;97129;-73
2023/03/05 07:46:05;;;;;;;;;;;;;;;1.09;71.61;96568.85;109022;1250;96938;-72
2023/03/05 07:48:33;;;;;;;;;;;;;;;1.12;71.46;96571.95;108760;1250;104877;-72
2023/03/05 07:51:06;;;;;;;;;;;;;;;1.12;71.43;96569.77;108713;1251;101278;-72
2023/03/05 07:53:35;;;;;;;;;;;;;;;1.12;71.21;96567.10;108957;1251;99926;-72
2023/03/05 07:56:03;;;;;;;;;;;;;;;1.07;71.28;96567.37;108994;1250;96940;-72
2023/03/05 07:58:31;;;;;;;;;;;;;;;1.03;71.20;96563.69;108929;1250;208162;-74
2023/03/05 08:00:59;;;;;;;;;;;;;;;1.05;71.27;96564.92;109035;1250;104792;-72
2023/03/05 08:03:27;;;;;;;;;;;;;;;1.04;71.30;96562.65;108993;1250;100184;-71
2023/03/05 08:05:55;;;;;;;;;;;;;;;1.03;71.32;96562.42;108970;1249;99622;-72
2023/03/05 08:08:23;;;;;;;;;;;;;;;0.97;71.27;96561.56;108688;1249;97003;-72
2023/03/05 08:10:51;;;;;;;;;;;;;;;0.90;71.40;96562.55;108741;1250;96990;-75
2023/03/05 08:13:19;;;;;;;;;;;;;;;0.85;71.61;96560.77;108731;1251;105079;-72
2023/03/05 08:15:47;;;;;;;;;;;;;;;0.81;71.68;96561.02;108678;1254;100541;-71
2023/03/05 08:18:17;;;;;;;;;;;;;;;0.73;71.56;96560.22;108608;1254;99066;-71
2023/03/05 08:20:45;;;;;;;;;;;;;;;0.68;71.49;96560.87;108624;1254;96988;-72
2023/03/05 08:23:13;;;;;;;;;;;;;;;0.72;71.46;96559.92;108659;1254;97349;-72
2023/03/05 08:25:41;;;;;;;;;;;;;;;0.72;71.43;96558.69;108704;1254;104918;-72
2023/03/05 08:28:09;;;;;;;;;;;;;;;0.69;71.38;96557.31;108679;1253;101457;-74
2023/03/05 08:30:40;;;;;;;;;;;;;;;0.61;71.29;96557.66;108265;1256;101018;-72
2023/03/05 08:33:08;;;;;;;;;;;;;;;0.59;71.40;96560.66;108595;1254;97250;-73
2023/03/05 08:35:36;;;;;;;;;;;;;;;0.65;71.45;96561.73;108647;1254;97135;-73
2023/03/05 08:38:04;;;;;;;;;;;;;;;0.70;71.41;96560.30;108673;1254;105076;-74
2023/03/05 08:40:32;;;;;;;;;;;;;;;0.75;71.37;96557.81;108446;1254;101213;-74
2023/03/05 08:43:00;;;;;;;;;;;;;;;0.78;71.36;96558.61;108359;1254;100062;-74
2023/03/05 08:45:28;;;;;;;;;;;;;;;0.75;71.35;96554.65;108251;1254;97014;-72
2023/03/05 08:47:56;;;;;;;;;;;;;;;0.78;71.42;96550.40;108590;1251;97060;-74
2023/03/05 08:50:24;;;;;;;;;;;;;;;0.84;71.24;96547.42;109009;1250;104864;-75
2023/03/05 08:52:52;;;;;;;;;;;;;;;0.89;71.13;96546.34;108688;1250;101429;-72
2023/03/05 08:55:20;;;;;;;;;;;;;;;0.88;71.02;96541.49;108990;1250;99816;-72
2023/03/05 08:57:48;;;;;;;;;;;;;;;0.92;71.11;96538.92;109003;1250;96932;-72
2023/03/05 09:00:17;;;;;;;;;;;;;;;0.98;71.02;96533.94;109010;1249;97270;-72
2023/03/05 09:02:45;;;;;;;;;;;;;;;1.06;70.97;96534.31;109055;1250;105043;-74
2023/03/05 09:05:13;;;;;;;;;;;;;;;1.10;71.02;96531.52;109027;1250;101354;-75
2023/03/05 09:07:41;;;;;;;;;;;;;;;1.11;70.90;96526.80;108947;1249;99899;-74
2023/03/05 09:10:11;;;;;;;;;;;;;;;1.16;70.87;96523.64;108956;1250;96875;-73
2023/03/05 09:12:39;;;;;;;;;;;;;;;1.23;70.75;96525.82;108997;1250;97093;-72
2023/03/05 09:15:08;;;;;;;;;;;;;;;1.28;70.55;96521.14;109062;1250;104949;-73
2023/03/05 09:17:37;;;;;;;;;;;;;;;1.34;70.48;96519.70;109022;1250;101833;-73
2023/03/05 09:20:06;;;;;;;;;;;;;;;1.38;70.54;96517.45;108614;1251;100049;-72
2023/03/05 09:22:34;;;;;;;;;;;;;;;1.45;70.73;96512.69;108592;1251;97037;-72
2023/03/05 09:25:02;;;;;;;;;;;;;;;1.52;70.68;96510.79;108931;1250;96975;-72
2023/03/05 09:27:32;;;;;;;;;;;;;;;1.53;70.09;96509.88;108911;1251;104901;-72
2023/03/05 09:30:00;;;;;;;;;;;;;;;1.55;70.25;96506.88;108626;1251;109752;-73
2023/03/05 09:32:28;;;;;;;;;;;;;;;1.60;70.26;96507.45;108916;1251;99375;-72
2023/03/05 09:34:57;;;;;;;;;;;;;;;1.64;70.05;96505.52;108882;1251;96893;-72
2023/03/05 09:37:25;;;;;;;;;;;;;;;1.62;69.92;96501.39;108888;1250;97018;-73
2023/03/05 09:39:53;;;;;;;;;;;;;;;1.64;69.99;96500.36;108913;1251;112036;-73
2023/03/05 09:42:44;;;;;;;;;;;;;;;1.66;69.94;96493.33;108931;1249;100431;-73
2023/03/05 09:45:21;;;;;;;;;;;;;;;1.66;69.84;96495.95;108916;1249;98875;-72
2023/03/05 09:47:56;;;;;;;;;;;;;;;1.67;69.71;96493.39;108684;1250;97081;-71
2023/03/05 09:50:35;;;;;;;;;;;;;;;1.66;69.72;96490.63;108878;1251;96981;-73
2023/03/05 09:53:06;;;;;;;;;;;;;;;1.68;69.56;96488.77;108875;1250;105000;-73
2023/03/05 09:55:39;;;;;;;;;;;;;;;1.72;69.35;96488.67;108890;1251;101195;-72
2023/03/05 09:58:12;;;;;;;;;;;;;;;1.76;69.34;96487.59;108832;1251;99536;-73
2023/03/05 10:00:45;;;;;;;;;;;;;;;1.78;69.40;96491.17;108853;1251;97240;-74
2023/03/05 10:03:30;;;;;;;;;;;;;;;1.78;69.44;96485.65;108941;1251;97288;-72
2023/03/05 10:06:02;;;;;;;;;;;;;;;1.76;69.42;96482.93;108951;1251;104867;-73
2023/03/05 10:08:39;;;;;;;;;;;;;;;1.73;69.36;96482.15;108929;1250;101175;-74
2023/03/05 10:11:12;;;;;;;;;;;;;;;1.69;69.51;96475.95;108873;1251;99968;-73
2023/03/05 10:13:43;;;;;;;;;;;;;;;1.69;69.57;96473.61;108950;1251;96931;-74
2023/03/05 10:16:11;;;;;;;;;;;;;;;1.73;69.60;96466.66;108972;1250;96974;-73
2023/03/05 10:18:45;;;;;;;;;;;;;;;1.75;69.81;96461.42;109016;1249;104805;-73
2023/03/05 10:21:16;;;;;;;;;;;;;;;1.79;69.90;96461.58;108979;1250;101471;-73
2023/03/05 10:23:50;;;;;;;;;;;;;;;1.85;69.78;96458.64;108661;1251;100020;-75
2023/03/05 10:26:19;;;;;;;;;;;;;;;1.88;69.64;96453.70;108874;1250;96978;-73
2023/03/05 10:28:57;;;;;;;;;;;;;;;1.93;69.53;96455.37;108889;1251;97015;-72
2023/03/05 10:31:45;;;;;;;;;;;;;;;1.98;69.56;96453.44;108932;1251;105715;-73
2023/03/05 10:34:35;;;;;;;;;;;;;;;2.02;69.74;96452.44;108975;1250;101321;-72
2023/03/05 10:37:21;;;;;;;;;;;;;;;2.03;69.21;96451.20;108867;1249;100118;-73
2023/03/05 10:40:00;;;;;;;;;;;;;;;2.05;69.23;96451.42;108868;1251;96997;-72
2023/03/05 10:42:42;;;;;;;;;;;;;;;2.06;69.19;96450.61;108863;1251;96966;-75
2023/03/05 10:45:29;;;;;;;;;;;;;;;2.03;68.89;96446.73;108903;1250;104721;-73
2023/03/05 10:48:02;;;;;;;;;;;;;;;2.03;68.90;96446.73;108907;1251;101553;-73
2023/03/05 10:50:36;;;;;;;;;;;;;;;2.00;68.87;96457.08;108918;1250;99227;-73
2023/03/05 10:53:15;;;;;;;;;;;;;;;1.91;68.88;96451.60;108835;1251;96939;-73
2023/03/05 10:55:44;;;;;;;;;;;;;;;1.80;68.98;96448.01;108874;1251;97053;-72
2023/03/05 10:58:14;;;;;;;;;;;;;;;1.75;69.34;96447.02;108892;1250;104768;-75
2023/03/05 11:00:58;;;;;;;;;;;;;;;1.71;69.46;96441.96;108912;1251;101233;-72
2023/03/05 11:03:26;;;;;;;;;;;;;;;1.60;69.64;96438.73;108870;1251;99819;-73
2023/03/05 11:06:00;;;;;;;;;;;;;;;1.53;69.81;96437.57;108888;1250;96984;-72
2023/03/05 11:08:37;;;;;;;;;;;;;;;1.55;70.08;96440.19;108842;1251;97246;-73
2023/03/05 11:11:13;;;;;;;;;;;;;;;1.59;70.22;96435.77;108885;1251;105055;-73
2023/03/05 11:13:51;;;;;;;;;;;;;;;1.59;70.17;96434.59;108882;1251;101332;-73
2023/03/05 11:16:24;;;;;;;;;;;;;;;1.57;70.25;96433.86;108861;1251;99480;-73
2023/03/05 11:19:14;;;;;;;;;;;;;;;1.56;70.40;96428.44;108873;1251;97192;-74
2023/03/05 11:21:43;;;;;;;;;;;;;;;1.51;70.58;96425.55;108368;1257;97106;-74
2023/03/05 11:24:19;;;;;;;;;;;;;;;1.52;70.74;96417.50;108341;1257;104480;-73
2023/03/05 11:26:47;;;;;;;;;;;;;;;1.53;71.05;96414.70;108384;1256;101349;-72
2023/03/05 11:29:21;;;;;;;;;;;;;;;1.56;71.21;96414.54;108312;1257;99944;-72
2023/03/05 11:31:50;;;;;;;;;;;;;;;1.65;71.35;96409.23;108356;1256;97443;-72
2023/03/05 11:34:18;;;;;;;;;;;;;;;1.77;71.38;96402.67;108366;1257;97022;-71
2023/03/05 11:36:53;;;;;;;;;;;;;;;1.84;71.07;96397.61;108390;1256;104196;-72
2023/03/05 11:39:25;;;;;;;;;;;;;;;1.88;70.94;96391.13;108352;1256;101041;-72
2023/03/05 11:42:04;;;;;;;;;;;;;;;1.98;70.88;96387.36;108320;1257;99603;-72
2023/03/05 11:44:34;;;;;;;;;;;;;;;2.07;70.42;96383.30;108179;1256;96911;-72
2023/03/05 11:47:05;;;;;;;;;;;;;;;2.12;70.05;96378.55;108368;1256;97841;-72
2023/03/05 11:49:39;;;;;;;;;;;;;;;2.19;69.79;96373.88;108350;1256;104930;-73
2023/03/05 11:52:13;;;;;;;;;;;;;;;2.28;69.67;96366.92;108364;1257;101212;-73
2023/03/05 11:55:03;;;;;;;;;;;;;;;2.34;69.58;96365.27;108352;1256;100086;-73
2023/03/05 11:57:35;;;;;;;;;;;;;;;2.38;69.27;96364.20;108217;1256;96969;-72
2023/03/05 12:00:10;;;;;;;;;;;;;;;2.39;69.02;96363.36;108638;1250;97945;-72
2023/03/05 12:02:39;;;;;;;;;;;;;;;2.40;68.88;96356.48;109013;1250;104869;-75
2023/03/05 12:05:08;;;;;;;;;;;;;;;2.38;68.62;96357.48;108829;1249;101542;-72
2023/03/05 12:07:40;;;;;;;;;;;;;;;2.38;68.61;96356.11;109010;1249;99965;-74
2023/03/05 12:10:15;;;;;;;;;;;;;;;2.38;68.34;96347.85;109043;1249;96903;-72
2023/03/05 12:12:46;;;;;;;;;;;;;;;2.38;68.23;96344.29;108718;1251;97049;-73
2023/03/05 12:15:33;;;;;;;;;;;;;;;2.39;68.22;96341.59;109021;1250;105040;-75
2023/03/05 12:18:05;;;;;;;;;;;;;;;2.42;68.19;96343.10;109032;1250;109920;-73
2023/03/05 12:20:34;;;;;;;;;;;;;;;2.44;68.07;96340.23;109045;1250;99601;-72
2023/03/05 12:23:02;;;;;;;;;;;;;;;2.49;67.95;96334.33;108965;1250;96913;-75
2023/03/05 12:25:35;;;;;;;;;;;;;;;2.57;68.03;96337.45;108717;1251;97191;-74
2023/03/05 12:28:13;;;;;;;;;;;;;;;2.64;67.93;96334.41;109048;1249;104707;-72
2023/03/05 12:30:41;;;;;;;;;;;;;;;2.66;67.62;96336.80;108617;1250;101049;-73
2023/03/05 12:33:29;;;;;;;;;;;;;;;2.66;67.48;96338.93;108993;1250;99911;-73
2023/03/05 12:36:18;;;;;;;;;;;;;;;2.66;67.31;96334.23;108961;1250;96928;-74
2023/03/05 12:38:57;;;;;;;;;;;;;;;2.64;67.03;96333.00;109026;1249;96946;-76
2023/03/05 12:41:25;;;;;;;;;;;;;;;2.67;67.09;96334.36;109008;1250;104405;-75
2023/03/05 12:44:06;;;;;;;;;;;;;;;2.66;66.57;96328.83;109039;1250;101275;-75
2023/03/05 12:46:36;;;;;;;;;;;;;;;2.62;66.53;96331.33;109007;1249;98961;-73
2023/03/05 12:49:21;;;;;;;;;;;;;;;2.64;66.50;96333.23;108729;1250;96954;-71
2023/03/05 12:51:52;;;;;;;;;;;;;;;2.67;66.36;96331.01;109059;1251;97057;-75
2023/03/05 12:54:35;;;;;;;;;;;;;;;2.68;66.44;96335.15;108725;1251;105196;-74
2023/03/05 12:57:18;;;;;;;;;;;;;;;2.69;66.23;96327.25;109067;1250;101051;-73
2023/03/05 12:59:55;;;;;;;;;;;;;;;2.68;66.20;96327.52;108988;1250;99928;-75